createdAt,value
2018-07-30T00:01:54.140Z,99.90
2018-07-30T00:03:58.440Z,99.90
2018-07-30T00:06:02.722Z,99.90
2018-07-30T00:08:07.012Z,99.90
2018-07-30T00:10:10.996Z,99.90
2018-07-30T00:12:15.270Z,99.90
2018-07-30T00:14:19.449Z,99.90
2018-07-30T00:16:24.001Z,99.90
2018-07-30T00:18:28.032Z,99.90
2018-07-30T00:20:32.116Z,99.90
2018-07-30T00:22:36.392Z,99.90
2018-07-30T00:24:40.665Z,99.90
2018-07-30T00:26:44.607Z,99.90
2018-07-30T00:28:48.772Z,99.90
2018-07-30T00:30:53.098Z,99.90
2018-07-30T00:32:57.074Z,99.90
2018-07-30T00:35:01.413Z,99.90
2018-07-30T00:37:05.920Z,99.90
2018-07-30T00:39:11.488Z,99.90
2018-07-30T00:41:15.456Z,99.90
2018-07-30T00:43:19.416Z,99.90
2018-07-30T00:45:23.705Z,99.90
2018-07-30T00:47:27.644Z,99.90
2018-07-30T00:49:31.679Z,99.90
2018-07-30T00:51:36.192Z,99.90
2018-07-30T00:53:40.503Z,99.90
2018-07-30T00:55:44.432Z,99.90
2018-07-30T00:57:49.024Z,99.90
2018-07-30T00:59:52.981Z,99.90
2018-07-30T01:01:57.004Z,99.90
2018-07-30T01:04:00.952Z,99.90
2018-07-30T01:06:04.966Z,99.90
2018-07-30T01:08:09.577Z,99.90
2018-07-30T01:10:13.892Z,99.90
2018-07-30T01:12:17.987Z,99.90
2018-07-30T01:14:22.159Z,99.90
2018-07-30T01:16:26.280Z,99.90
2018-07-30T01:18:30.329Z,99.90
2018-07-30T01:20:34.233Z,99.90
2018-07-30T01:22:38.561Z,99.90
2018-07-30T01:24:43.597Z,99.90
2018-07-30T01:26:47.527Z,99.90
2018-07-30T01:28:52.159Z,99.90
2018-07-30T01:30:56.268Z,99.90
2018-07-30T01:33:00.384Z,99.90
2018-07-30T01:35:04.860Z,99.90
2018-07-30T01:37:08.818Z,99.90
2018-07-30T01:39:12.866Z,99.90
2018-07-30T01:41:17.552Z,99.90
2018-07-30T01:43:21.815Z,99.90
2018-07-30T01:45:25.768Z,99.90
2018-07-30T01:47:29.932Z,99.90
2018-07-30T01:49:33.868Z,99.90
2018-07-30T01:51:38.236Z,99.90
2018-07-30T01:53:42.460Z,99.90
2018-07-30T01:55:46.756Z,99.90
2018-07-30T01:57:50.696Z,99.90
2018-07-30T01:59:55.097Z,99.90
2018-07-30T02:01:59.400Z,99.90
2018-07-30T02:04:03.343Z,99.90
2018-07-30T02:06:07.291Z,99.90
2018-07-30T02:08:11.304Z,99.90
2018-07-30T02:10:15.226Z,99.90
2018-07-30T02:12:19.864Z,99.90
2018-07-30T02:14:24.137Z,99.90
2018-07-30T02:16:28.413Z,99.90
2018-07-30T02:18:32.892Z,99.90
2018-07-30T02:20:36.816Z,99.90
2018-07-30T02:22:40.748Z,99.90
2018-07-30T02:24:44.699Z,99.90
2018-07-30T02:28:52.388Z,99.90
2018-07-30T02:30:57.240Z,99.90
2018-07-30T02:33:01.206Z,99.90
2018-07-30T02:35:06.985Z,99.90
2018-07-30T02:37:11.591Z,99.90
2018-07-30T02:39:16.064Z,99.90
2018-07-30T02:41:20.436Z,99.90
2018-07-30T02:43:24.556Z,99.90
2018-07-30T02:45:28.480Z,99.90
2018-07-30T02:47:32.440Z,99.90
2018-07-30T02:49:36.748Z,99.90
2018-07-30T02:51:40.715Z,99.90
2018-07-30T02:53:45.175Z,99.90
2018-07-30T02:55:49.124Z,99.90
2018-07-30T02:59:57.425Z,99.90
2018-07-30T03:02:01.369Z,99.90
2018-07-30T03:04:05.487Z,99.90
2018-07-30T03:06:09.436Z,99.90
2018-07-30T03:08:13.407Z,99.90
2018-07-30T03:10:17.360Z,99.90
2018-07-30T03:12:21.331Z,99.90
2018-07-30T03:14:25.603Z,99.90
2018-07-30T03:16:29.588Z,99.90
2018-07-30T03:18:33.563Z,99.90
2018-07-30T03:20:37.496Z,99.90
2018-07-30T03:22:41.759Z,99.90
2018-07-30T03:24:46.036Z,99.90
2018-07-30T03:28:53.658Z,99.90
2018-07-30T03:33:01.645Z,99.90
2018-07-30T03:35:06.191Z,99.90
2018-07-30T03:37:10.460Z,99.90
2018-07-30T03:39:14.756Z,99.90
2018-07-30T03:41:19.736Z,99.90
2018-07-30T03:45:27.608Z,99.90
2018-07-30T03:47:31.988Z,99.90
2018-07-30T03:49:36.249Z,99.90
2018-07-30T03:51:40.558Z,99.90
2018-07-30T03:53:44.507Z,99.90
2018-07-30T03:55:48.781Z,99.90
2018-07-30T03:59:56.650Z,99.90
2018-07-30T04:02:00.736Z,99.90
2018-07-30T04:04:05.183Z,99.90
2018-07-30T04:06:09.163Z,99.90
2018-07-30T04:08:13.236Z,99.90
2018-07-30T04:10:17.736Z,99.90
2018-07-30T04:12:21.699Z,99.90
2018-07-30T04:14:25.646Z,99.90
2018-07-30T04:16:29.596Z,99.90
2018-07-30T04:18:33.523Z,99.90
2018-07-30T04:20:37.488Z,99.90
2018-07-30T04:24:45.025Z,99.90
2018-07-30T04:26:49.313Z,99.90
2018-07-30T04:28:53.428Z,99.90
2018-07-30T04:30:57.725Z,99.90
2018-07-30T04:33:01.881Z,99.90
2018-07-30T04:35:06.133Z,99.90
2018-07-30T04:37:10.481Z,99.90
2018-07-30T04:39:15.327Z,99.90
2018-07-30T04:41:20.646Z,99.90
2018-07-30T04:43:25.636Z,99.90
2018-07-30T04:45:29.900Z,99.90
2018-07-30T04:47:33.828Z,99.90
2018-07-30T04:49:37.775Z,99.90
2018-07-30T04:51:41.765Z,99.90
2018-07-30T04:53:45.740Z,99.90
2018-07-30T04:55:50.347Z,99.90
2018-07-30T04:57:54.397Z,99.90
2018-07-30T04:59:58.367Z,99.90
2018-07-30T05:02:02.308Z,99.90
2018-07-30T05:04:06.265Z,99.90
2018-07-30T05:06:10.214Z,99.90
2018-07-30T05:08:14.186Z,99.90
2018-07-30T05:10:18.179Z,99.90
2018-07-30T05:12:22.240Z,99.90
2018-07-30T05:14:26.144Z,99.90
2018-07-30T05:16:30.081Z,99.90
2018-07-30T05:18:34.064Z,99.90
2018-07-30T05:20:38.611Z,99.90
2018-07-30T05:22:42.585Z,99.90
2018-07-30T05:24:46.588Z,99.90
2018-07-30T05:26:50.721Z,99.90
2018-07-30T05:28:54.705Z,99.90
2018-07-30T05:30:58.956Z,99.90
2018-07-30T05:33:02.985Z,99.90
2018-07-30T05:35:06.928Z,99.90
2018-07-30T05:37:10.937Z,99.90
2018-07-30T05:39:15.454Z,99.90
2018-07-30T05:41:19.920Z,99.90
2018-07-30T05:43:24.217Z,99.90
2018-07-30T05:45:28.150Z,99.90
2018-07-30T05:47:32.148Z,99.90
2018-07-30T05:49:36.633Z,99.90
2018-07-30T05:51:40.560Z,99.90
2018-07-30T05:53:44.600Z,99.90
2018-07-30T05:55:49.678Z,99.90
2018-07-30T05:57:53.996Z,99.90
2018-07-30T05:59:58.285Z,99.90
2018-07-30T06:02:02.332Z,99.90
2018-07-30T06:04:06.605Z,99.90
2018-07-30T06:06:10.544Z,99.90
2018-07-30T06:08:14.504Z,99.90
2018-07-30T06:10:18.783Z,99.90
2018-07-30T06:12:22.735Z,99.90
2018-07-30T06:14:26.746Z,99.90
2018-07-30T06:16:31.017Z,99.90
2018-07-30T06:18:34.940Z,99.90
2018-07-30T06:20:38.968Z,99.90
2018-07-30T06:22:43.191Z,99.90
2018-07-30T06:24:47.156Z,99.90
2018-07-30T06:26:51.112Z,99.90
2018-07-30T06:28:55.087Z,99.90
2018-07-30T06:30:59.047Z,99.90
2018-07-30T06:33:03.238Z,99.90
2018-07-30T06:35:07.912Z,99.90
2018-07-30T06:37:11.851Z,99.90
2018-07-30T06:39:16.052Z,99.90
2018-07-30T06:41:19.988Z,99.90
2018-07-30T06:43:23.980Z,99.90
2018-07-30T06:45:28.611Z,99.90
2018-07-30T06:47:32.925Z,99.90
2018-07-30T06:49:36.905Z,99.90
2018-07-30T06:51:40.813Z,99.90
2018-07-30T06:53:45.108Z,99.90
2018-07-30T06:55:49.053Z,99.90
2018-07-30T06:57:53.552Z,99.90
2018-07-30T06:59:57.612Z,99.90
2018-07-30T07:02:01.955Z,99.90
2018-07-30T07:04:06.400Z,99.90
2018-07-30T07:08:13.976Z,99.90
2018-07-30T07:10:17.924Z,99.90
2018-07-30T07:12:22.028Z,99.90
2018-07-30T07:14:25.963Z,99.90
2018-07-30T07:16:29.915Z,99.90
2018-07-30T07:18:34.436Z,99.90
2018-07-30T07:20:38.420Z,99.90
2018-07-30T07:22:42.547Z,99.90
2018-07-30T07:24:46.557Z,99.90
2018-07-30T07:26:50.560Z,99.90
2018-07-30T07:28:54.980Z,99.90
2018-07-30T07:30:58.987Z,99.90
2018-07-30T07:33:02.885Z,99.90
2018-07-30T07:35:07.259Z,99.90
2018-07-30T07:37:11.257Z,99.90
2018-07-30T07:41:19.264Z,99.90
2018-07-30T07:45:27.137Z,99.90
2018-07-30T07:47:31.711Z,99.90
2018-07-30T07:49:36.064Z,99.90
2018-07-30T07:51:40.727Z,99.90
2018-07-30T07:53:44.912Z,99.90
2018-07-30T07:55:49.272Z,99.90
2018-07-30T07:57:53.536Z,99.90
2018-07-30T07:59:57.698Z,99.90
2018-07-30T08:02:01.648Z,99.90
2018-07-30T08:04:05.955Z,99.90
2018-07-30T08:06:10.275Z,99.90
2018-07-30T08:08:14.564Z,99.90
2018-07-30T08:10:18.836Z,99.90
2018-07-30T08:16:30.280Z,99.90
2018-07-30T08:18:34.212Z,99.90
2018-07-30T08:20:38.522Z,99.90
2018-07-30T08:22:42.918Z,99.90
2018-07-30T08:24:46.913Z,99.90
2018-07-30T08:26:50.847Z,99.90
2018-07-30T08:28:55.087Z,99.90
2018-07-30T08:30:59.300Z,99.90
2018-07-30T08:33:03.425Z,99.90
2018-07-30T08:35:07.812Z,99.90
2018-07-30T08:37:11.750Z,99.90
2018-07-30T08:43:23.268Z,99.90
2018-07-30T08:45:27.568Z,99.90
2018-07-30T08:49:36.053Z,99.90
2018-07-30T08:51:40.080Z,99.90
2018-07-30T08:53:44.075Z,99.90
2018-07-30T08:55:48.278Z,99.90
2018-07-30T08:57:52.246Z,99.90
2018-07-30T08:59:56.183Z,99.90
2018-07-30T09:02:00.484Z,99.90
2018-07-30T09:04:04.437Z,99.90
2018-07-30T09:08:12.033Z,99.90
2018-07-30T09:10:15.986Z,99.90
2018-07-30T09:12:19.939Z,99.90
2018-07-30T09:14:24.277Z,99.90
2018-07-30T09:16:28.552Z,99.90
2018-07-30T09:18:32.830Z,99.90
2018-07-30T09:20:37.684Z,99.90
2018-07-30T09:22:41.664Z,99.90
2018-07-30T09:24:45.648Z,99.90
2018-07-30T09:26:49.794Z,99.90
2018-07-30T09:28:53.964Z,99.90
2018-07-30T09:30:57.976Z,99.90
2018-07-30T09:33:02.093Z,99.90
2018-07-30T09:35:06.127Z,99.90
2018-07-30T09:37:10.462Z,99.90
2018-07-30T09:39:15.146Z,99.90
2018-07-30T09:41:19.256Z,99.90
2018-07-30T09:43:23.948Z,99.90
2018-07-30T09:45:27.920Z,99.90
2018-07-30T09:47:31.892Z,99.90
2018-07-30T09:49:36.171Z,99.90
2018-07-30T09:51:40.484Z,99.90
2018-07-30T09:53:44.435Z,99.90
2018-07-30T09:55:49.592Z,99.90
2018-07-30T09:57:53.551Z,99.90
2018-07-30T09:59:57.497Z,99.90
2018-07-30T10:02:01.465Z,99.90
2018-07-30T10:04:05.837Z,99.90
2018-07-30T10:06:10.145Z,99.90
2018-07-30T10:08:14.232Z,99.90
2018-07-30T10:10:18.571Z,99.90
2018-07-30T10:12:23.000Z,99.90
2018-07-30T10:18:35.165Z,99.90
2018-07-30T10:20:39.129Z,99.90
2018-07-30T10:24:47.315Z,99.90
2018-07-30T10:26:51.318Z,99.90
2018-07-30T10:28:55.272Z,99.90
2018-07-30T10:30:59.345Z,99.90
2018-07-30T10:33:03.259Z,99.90
2018-07-30T10:35:07.229Z,99.90
2018-07-30T10:37:11.212Z,99.90
2018-07-30T10:39:15.756Z,99.90
2018-07-30T10:41:20.743Z,99.90
2018-07-30T10:43:24.672Z,99.90
2018-07-30T10:45:28.647Z,99.90
2018-07-30T10:47:32.597Z,99.90
2018-07-30T10:49:37.481Z,99.90
2018-07-30T10:51:41.477Z,99.90
2018-07-30T10:53:45.618Z,99.90
2018-07-30T10:55:50.061Z,99.90
2018-07-30T10:57:54.048Z,99.90
2018-07-30T10:59:58.078Z,99.90
2018-07-30T11:02:02.048Z,99.90
2018-07-30T11:04:06.523Z,99.90
2018-07-30T11:06:10.496Z,99.90
2018-07-30T11:08:14.516Z,99.90
2018-07-30T11:10:18.528Z,99.90
2018-07-30T11:12:22.482Z,99.90
2018-07-30T11:14:26.660Z,99.90
2018-07-30T11:16:30.628Z,99.90
2018-07-30T11:18:34.560Z,99.90
2018-07-30T11:20:38.540Z,99.90
2018-07-30T11:22:42.916Z,99.90
2018-07-30T11:24:46.864Z,99.90
2018-07-30T11:26:51.212Z,99.90
2018-07-30T11:28:55.209Z,99.90
2018-07-30T11:30:59.141Z,99.90
2018-07-30T11:33:03.486Z,99.90
2018-07-30T11:35:07.985Z,99.90
2018-07-30T11:37:11.928Z,99.90
2018-07-30T11:39:16.105Z,99.90
2018-07-30T11:41:20.311Z,99.90
2018-07-30T11:43:24.432Z,99.90
2018-07-30T11:45:29.239Z,99.90
2018-07-30T11:47:33.231Z,99.90
2018-07-30T11:49:37.972Z,99.90
2018-07-30T11:51:42.077Z,99.90
2018-07-30T11:53:47.001Z,99.50
2018-07-30T11:55:51.168Z,99.20
2018-07-30T11:57:55.184Z,98.70
2018-07-30T11:59:59.108Z,99.30
2018-07-30T12:02:03.204Z,99.40
2018-07-30T12:04:07.333Z,99.00
2018-07-30T12:06:11.504Z,99.00
2018-07-30T12:08:15.580Z,98.60
2018-07-30T12:10:20.944Z,98.30
2018-07-30T12:12:25.025Z,98.70
2018-07-30T12:14:29.752Z,99.30
2018-07-30T12:16:33.698Z,98.20
2018-07-30T12:18:38.210Z,97.70
2018-07-30T12:20:42.717Z,98.20
2018-07-30T12:22:47.912Z,97.10
2018-07-30T12:24:52.410Z,91.40
2018-07-30T12:26:56.622Z,91.20
2018-07-30T12:29:00.937Z,88.60
2018-07-30T12:31:05.625Z,86.50
2018-07-30T12:33:09.708Z,83.80
2018-07-30T12:35:13.726Z,76.10
2018-07-30T12:37:18.042Z,72.90
2018-07-30T12:39:22.308Z,72.50
2018-07-30T12:41:27.185Z,68.70
2018-07-30T12:43:31.140Z,70.00
2018-07-30T12:45:40.675Z,68.50
2018-07-30T12:47:44.662Z,66.60
2018-07-30T12:49:49.051Z,65.90
2018-07-30T12:51:53.555Z,67.50
2018-07-30T12:53:58.452Z,68.20
2018-07-30T12:56:02.627Z,68.80
2018-07-30T12:58:07.137Z,66.80
2018-07-30T13:00:11.080Z,68.10
2018-07-30T13:02:16.411Z,64.70
2018-07-30T13:04:20.979Z,65.70
2018-07-30T13:06:25.802Z,65.50
2018-07-30T13:08:30.333Z,65.30
2018-07-30T13:10:35.256Z,65.10
2018-07-30T13:12:39.585Z,65.40
2018-07-30T13:14:44.096Z,65.80
2018-07-30T13:16:48.626Z,66.10
2018-07-30T13:18:53.440Z,64.40
2018-07-30T13:20:57.985Z,63.20
2018-07-30T13:23:03.184Z,63.30
2018-07-30T13:25:08.120Z,63.70
2018-07-30T13:27:13.937Z,62.90
2018-07-30T13:29:18.481Z,65.10
2018-07-30T13:31:22.908Z,66.40
2018-07-30T13:33:26.846Z,65.60
2018-07-30T13:35:30.798Z,66.80
2018-07-30T13:37:35.232Z,67.40
2018-07-30T13:39:39.509Z,66.40
2018-07-30T13:41:43.776Z,65.50
2018-07-30T13:43:48.072Z,64.60
2018-07-30T13:45:52.412Z,64.40
2018-07-30T13:47:56.418Z,63.80
2018-07-30T13:50:00.600Z,63.70
2018-07-30T13:52:06.723Z,62.20
2018-07-30T13:54:11.317Z,62.30
2018-07-30T13:56:16.322Z,63.80
2018-07-30T13:58:20.998Z,65.60
2018-07-30T14:00:24.932Z,66.70
2018-07-30T14:02:28.892Z,70.60
2018-07-30T14:04:32.836Z,70.70
2018-07-30T14:06:36.810Z,71.00
2018-07-30T14:08:41.432Z,69.30
2018-07-30T14:10:45.756Z,68.80
2018-07-30T14:12:50.850Z,68.50
2018-07-30T14:14:55.452Z,69.90
2018-07-30T14:16:59.455Z,70.70
2018-07-30T14:19:04.453Z,70.80
2018-07-30T14:21:09.144Z,72.50
2018-07-30T14:23:13.676Z,72.30
2018-07-30T14:25:18.528Z,70.20
2018-07-30T14:27:22.959Z,68.40
2018-07-30T14:29:27.444Z,68.00
2018-07-30T14:31:31.460Z,70.10
2018-07-30T14:33:36.366Z,72.10
2018-07-30T14:35:41.083Z,74.30
2018-07-30T14:37:45.572Z,74.70
2018-07-30T14:39:50.497Z,75.30
2018-07-30T14:41:55.024Z,75.90
2018-07-30T14:44:00.308Z,76.10
2018-07-30T14:46:05.268Z,74.50
2018-07-30T14:48:10.269Z,76.30
2018-07-30T14:50:15.068Z,74.20
2018-07-30T14:54:24.945Z,71.30
2018-07-30T14:56:29.381Z,68.90
2018-07-30T14:58:33.934Z,68.30
2018-07-30T15:00:38.457Z,67.50
2018-07-30T15:02:42.665Z,66.80
2018-07-30T15:04:47.244Z,65.40
2018-07-30T15:06:51.935Z,65.50
2018-07-30T15:08:56.130Z,62.60
2018-07-30T15:11:00.368Z,61.60
2018-07-30T15:13:04.607Z,63.90
2018-07-30T15:15:09.180Z,61.70
2018-07-30T15:17:13.765Z,61.20
2018-07-30T15:19:19.260Z,61.60
2018-07-30T15:21:24.001Z,61.10
2018-07-30T15:23:28.220Z,61.80
2018-07-30T15:25:32.436Z,63.40
2018-07-30T15:27:36.651Z,64.60
2018-07-30T15:29:41.230Z,65.80
2018-07-30T15:31:45.781Z,66.80
2018-07-30T15:33:50.327Z,65.70
2018-07-30T15:35:56.840Z,63.40
2018-07-30T15:38:01.061Z,63.80
2018-07-30T15:40:05.629Z,65.20
2018-07-30T15:42:09.840Z,64.00
2018-07-30T15:46:18.318Z,61.50
2018-07-30T15:48:22.566Z,61.50
2018-07-30T15:50:27.003Z,61.20
2018-07-30T15:52:31.248Z,62.10
2018-07-30T15:54:35.792Z,58.90
2018-07-30T15:56:40.004Z,58.00
2018-07-30T15:58:45.128Z,57.20
2018-07-30T16:00:50.238Z,54.90
2018-07-30T16:02:54.476Z,54.20
2018-07-30T16:04:59.240Z,55.70
2018-07-30T16:07:04.046Z,55.30
2018-07-30T16:09:08.989Z,55.00
2018-07-30T16:11:14.136Z,54.80
2018-07-30T16:13:18.896Z,54.00
2018-07-30T16:15:24.040Z,53.40
2018-07-30T16:17:29.136Z,53.20
2018-07-30T16:19:33.978Z,52.00
2018-07-30T16:21:39.144Z,51.60
2018-07-30T16:23:43.913Z,52.80
2018-07-30T16:25:49.009Z,52.20
2018-07-30T16:27:53.432Z,52.70
2018-07-30T16:29:58.011Z,52.60
2018-07-30T16:32:03.091Z,51.90
2018-07-30T16:34:08.225Z,52.40
2018-07-30T16:36:13.004Z,52.10
2018-07-30T16:38:17.379Z,50.20
2018-07-30T16:40:21.952Z,51.20
2018-07-30T16:42:26.164Z,52.70
2018-07-30T16:44:30.708Z,53.10
2018-07-30T16:48:39.183Z,51.80
2018-07-30T16:50:43.581Z,51.10
2018-07-30T16:52:47.926Z,51.80
2018-07-30T16:54:52.356Z,51.60
2018-07-30T16:56:56.625Z,52.10
2018-07-30T16:59:00.960Z,51.10
2018-07-30T17:01:05.516Z,51.90
2018-07-30T17:03:10.052Z,51.60
2018-07-30T17:05:17.594Z,52.40
2018-07-30T17:07:22.296Z,52.60
2018-07-30T17:09:26.520Z,52.50
2018-07-30T17:11:30.472Z,52.80
2018-07-30T17:13:34.679Z,52.10
2018-07-30T17:15:39.315Z,53.70
2018-07-30T17:17:43.885Z,55.20
2018-07-30T17:19:49.196Z,55.80
2018-07-30T17:21:53.632Z,57.30
2018-07-30T17:23:57.850Z,58.00
2018-07-30T17:26:02.625Z,59.10
2018-07-30T17:28:07.744Z,60.10
2018-07-30T17:30:13.609Z,61.70
2018-07-30T17:32:18.591Z,61.70
2018-07-30T17:34:23.714Z,61.40
2018-07-30T17:38:33.274Z,61.90
2018-07-30T17:42:42.375Z,64.80
2018-07-30T17:44:47.720Z,65.40
2018-07-30T17:46:52.520Z,66.20
2018-07-30T17:48:57.665Z,66.80
2018-07-30T17:51:02.880Z,68.20
2018-07-30T17:53:07.121Z,69.10
2018-07-30T17:55:11.524Z,70.10
2018-07-30T17:57:15.775Z,70.40
2018-07-30T17:59:20.194Z,71.10
2018-07-30T18:01:24.371Z,71.40
2018-07-30T18:03:28.932Z,72.20
2018-07-30T18:05:33.504Z,74.60
2018-07-30T18:07:38.290Z,76.80
2018-07-30T18:09:42.221Z,77.50
2018-07-30T18:13:50.764Z,77.90
2018-07-30T18:15:55.016Z,78.00
2018-07-30T18:17:59.240Z,79.70
2018-07-30T18:20:03.503Z,79.60
2018-07-30T18:22:08.104Z,78.70
2018-07-30T18:24:12.313Z,80.00
2018-07-30T18:28:21.096Z,80.30
2018-07-30T18:30:25.542Z,81.50
2018-07-30T18:32:30.089Z,79.80
2018-07-30T18:34:34.681Z,79.50
2018-07-30T18:36:38.905Z,81.40
2018-07-30T18:38:43.464Z,83.60
2018-07-30T18:40:48.091Z,84.40
2018-07-30T18:42:52.809Z,84.00
2018-07-30T18:44:57.172Z,85.70
2018-07-30T18:47:02.324Z,86.80
2018-07-30T18:49:06.528Z,87.60
2018-07-30T18:51:10.747Z,89.20
2018-07-30T18:53:14.955Z,90.10
2018-07-30T18:55:19.528Z,91.00
2018-07-30T18:57:24.284Z,91.20
2018-07-30T18:59:28.562Z,91.10
2018-07-30T19:01:33.112Z,91.40
2018-07-30T19:03:38.056Z,91.90
2018-07-30T19:05:42.600Z,92.00
2018-07-30T19:09:50.989Z,90.40
2018-07-30T19:11:55.539Z,91.00
2018-07-30T19:18:08.416Z,92.90
2018-07-30T19:20:12.993Z,93.50
2018-07-30T19:22:18.124Z,93.70
2018-07-30T19:24:22.502Z,94.30
2018-07-30T19:26:26.940Z,96.50
2018-07-30T19:28:31.200Z,96.30
2018-07-30T19:30:35.419Z,94.80
2018-07-30T19:32:40.055Z,95.30
2018-07-30T19:34:44.539Z,96.20
2018-07-30T19:36:49.247Z,97.00
2018-07-30T19:38:53.876Z,96.30
2018-07-30T19:43:02.224Z,96.30
2018-07-30T19:45:07.032Z,97.80
2018-07-30T19:47:11.440Z,98.70
2018-07-30T19:49:15.668Z,98.80
2018-07-30T19:51:20.556Z,99.00
2018-07-30T19:53:24.807Z,99.60
2018-07-30T19:55:29.042Z,99.90
2018-07-30T19:57:33.548Z,99.90
2018-07-30T19:59:38.017Z,99.90
2018-07-30T20:01:42.279Z,99.90
2018-07-30T20:05:57.482Z,99.90
2018-07-30T20:08:01.724Z,99.90
2018-07-30T20:10:05.979Z,99.90
2018-07-30T20:12:10.333Z,99.90
2018-07-30T20:14:14.744Z,99.90
2018-07-30T20:16:19.050Z,99.90
2018-07-30T20:18:23.450Z,99.90
2018-07-30T20:20:28.000Z,99.90
2018-07-30T20:22:32.569Z,99.90
2018-07-30T20:24:36.798Z,99.90
2018-07-30T20:30:49.060Z,99.90
2018-07-30T20:32:54.140Z,99.90
2018-07-30T20:34:58.711Z,99.90
2018-07-30T20:37:03.617Z,99.90
2018-07-30T20:39:08.784Z,99.90
2018-07-30T20:41:13.086Z,99.90
2018-07-30T20:43:17.612Z,99.90
2018-07-30T20:45:21.840Z,99.90
2018-07-30T20:47:26.056Z,99.90
2018-07-30T20:49:30.619Z,99.90
2018-07-30T20:51:34.860Z,99.90
2018-07-30T20:53:39.122Z,99.90
2018-07-30T20:55:43.817Z,99.90
2018-07-30T20:57:48.568Z,99.90
2018-07-30T20:59:52.540Z,99.90
2018-07-30T21:01:56.748Z,99.90
2018-07-30T21:04:01.296Z,99.90
2018-07-30T21:08:09.789Z,99.90
2018-07-30T21:10:13.884Z,99.90
2018-07-30T21:12:18.177Z,99.90
2018-07-30T21:14:22.777Z,99.90
2018-07-30T21:16:27.748Z,99.90
2018-07-30T21:18:31.962Z,99.90
2018-07-30T21:20:36.499Z,99.90
2018-07-30T21:22:40.770Z,99.90
2018-07-30T21:24:44.972Z,99.90
2018-07-30T21:26:49.208Z,99.90
2018-07-30T21:28:54.144Z,99.90
2018-07-30T21:30:58.356Z,99.90
2018-07-30T21:33:02.937Z,99.90
2018-07-30T21:35:07.156Z,99.90
2018-07-30T21:37:11.535Z,99.90
2018-07-30T21:39:16.102Z,99.90
2018-07-30T21:41:21.154Z,99.90
2018-07-30T21:43:25.144Z,99.90
2018-07-30T21:45:29.097Z,99.90
2018-07-30T21:47:33.028Z,99.90
2018-07-30T21:49:37.720Z,99.90
2018-07-30T21:51:41.952Z,99.90
2018-07-30T21:53:46.503Z,99.90
2018-07-30T21:55:51.133Z,99.90
2018-07-30T21:57:55.444Z,99.90
2018-07-30T22:00:00.048Z,99.90
2018-07-30T22:02:04.475Z,99.90
2018-07-30T22:04:08.432Z,99.90
2018-07-30T22:06:13.020Z,99.90
2018-07-30T22:08:17.238Z,99.90
2018-07-30T22:10:24.265Z,99.90
2018-07-30T22:12:28.574Z,99.90
2018-07-30T22:14:32.792Z,99.90
2018-07-30T22:16:37.707Z,99.90
2018-07-30T22:18:42.100Z,99.90
2018-07-30T22:20:46.334Z,99.90
2018-07-30T22:24:54.944Z,99.90
2018-07-30T22:26:59.893Z,99.90
2018-07-30T22:29:04.679Z,99.90
2018-07-30T22:31:09.112Z,99.90
2018-07-30T22:33:14.001Z,99.90
2018-07-30T22:35:18.764Z,99.90
2018-07-30T22:37:22.996Z,99.90
2018-07-30T22:41:31.064Z,99.90
2018-07-30T22:43:35.668Z,99.90
2018-07-30T22:45:40.039Z,99.90
2018-07-30T22:47:44.569Z,99.90
2018-07-30T22:49:48.808Z,99.90
2018-07-30T22:51:53.356Z,99.90
2018-07-30T22:53:57.551Z,99.90
2018-07-30T22:56:02.172Z,99.90
2018-07-30T23:00:10.254Z,99.90
2018-07-30T23:02:14.456Z,99.90
2018-07-30T23:06:22.908Z,99.90
2018-07-30T23:08:27.120Z,99.90
2018-07-30T23:10:31.939Z,99.90
2018-07-30T23:12:36.622Z,99.90
2018-07-30T23:14:40.844Z,99.90
2018-07-30T23:18:49.435Z,99.90
2018-07-30T23:20:53.939Z,99.90
2018-07-30T23:22:58.491Z,99.90
2018-07-30T23:25:02.889Z,99.90
2018-07-30T23:27:07.506Z,99.90
2018-07-30T23:29:12.122Z,99.90
2018-07-30T23:31:16.491Z,99.90
2018-07-30T23:35:25.018Z,99.90
2018-07-30T23:37:29.584Z,99.90
2018-07-30T23:39:34.211Z,99.90
2018-07-30T23:41:38.871Z,99.90
2018-07-30T23:43:43.472Z,99.90
2018-07-30T23:45:48.040Z,99.90
2018-07-30T23:47:52.487Z,99.90
2018-07-30T23:49:56.787Z,99.90
2018-07-30T23:54:04.912Z,99.90
2018-07-30T23:56:09.353Z,99.90
2018-07-30T23:58:13.991Z,99.90
